Time;durP1;ratioP1;P1;durP2;ratioP2;P2;SDS_P1;SDS_P2;PMS_P1;PMS_P2;Temp;Humidity;BMP_temperature;BMP_pressure;BME280_temperature;BME280_humidity;BME280_pressure;Samples;Min_cycle;Max_cycle;Signal;HPM_P1;HPM_P2
2023/03/10 00:00:19;;;;;;;4.00;1.88;;;;;;;6.58;100.00;93898.19;4992530;28;20823;-77
2023/03/10 00:02:48;;;;;;;5.63;2.20;;;;;;;6.58;100.00;93891.28;4989843;28;24513;-77
2023/03/10 00:05:16;;;;;;;5.63;2.10;;;;;;;6.60;100.00;93881.72;4991089;28;20817;-76
2023/03/10 00:07:43;;;;;;;7.25;2.22;;;;;;;6.60;100.00;93879.16;4982724;28;21193;-77
2023/03/10 00:10:11;;;;;;;4.22;2.30;;;;;;;6.57;100.00;93876.00;4989850;28;24433;-77
2023/03/10 00:12:37;;;;;;;5.38;2.80;;;;;;;6.54;100.00;93870.13;4992021;28;20829;-77
2023/03/10 00:15:07;;;;;;;8.50;4.45;;;;;;;6.46;100.00;93857.06;4991768;28;24444;-77
2023/03/10 00:17:34;;;;;;;6.43;3.55;;;;;;;6.49;100.00;93863.72;4992494;28;20776;-74
2023/03/10 00:20:01;;;;;;;8.97;4.30;;;;;;;6.45;100.00;93860.56;4988439;28;25133;-74
2023/03/10 00:22:27;;;;;;;15.15;5.40;;;;;;;6.47;100.00;93848.41;4985658;28;20792;-74
2023/03/10 00:24:54;;;;;;;10.88;5.43;;;;;;;6.46;100.00;93844.19;4987628;28;20799;-74
2023/03/10 00:27:20;;;;;;;9.55;5.78;;;;;;;6.45;100.00;93837.44;4987828;28;20800;-74
2023/03/10 00:29:51;;;;;;;7.95;2.92;;;;;;;6.42;100.00;93827.38;4981733;28;20786;-74
2023/03/10 00:32:18;;;;;;;6.70;3.00;;;;;;;6.42;100.00;93834.28;4977231;28;20710;-74
2023/03/10 00:34:45;;;;;;;5.50;2.28;;;;;;;6.43;100.00;93823.06;4991590;28;20818;-75
2023/03/10 00:37:11;;;;;;;6.05;2.25;;;;;;;6.36;100.00;93825.28;4992569;28;20787;-74
2023/03/10 00:39:38;;;;;;;4.25;2.38;;;;;;;6.36;100.00;93825.28;4992832;28;20787;-74
2023/03/10 00:42:04;;;;;;;6.85;2.63;;;;;;;6.28;100.00;93825.88;4991132;28;20780;-75
2023/03/10 00:44:31;;;;;;;8.27;3.35;;;;;;;6.23;100.00;93819.44;4991293;28;21337;-75
2023/03/10 00:46:57;;;;;;;6.93;2.88;;;;;;;6.22;100.00;93828.09;4989184;28;21364;-75
2023/03/10 00:49:25;;;;;;;9.13;4.15;;;;;;;6.23;100.00;93830.56;4983355;28;20785;-75
2023/03/10 00:51:52;;;;;;;9.23;3.90;;;;;;;6.20;100.00;93822.25;4987847;28;20818;-75
2023/03/10 00:54:18;;;;;;;5.03;3.20;;;;;;;6.17;100.00;93827.63;4988034;28;20777;-75
2023/03/10 00:56:45;;;;;;;6.15;3.03;;;;;;;6.22;100.00;93825.50;4988339;28;24433;-75
2023/03/10 00:59:12;;;;;;;4.82;2.15;;;;;;;6.19;100.00;93820.59;4988160;28;24437;-75
2023/03/10 01:01:40;;;;;;;4.40;1.70;;;;;;;6.23;100.00;93807.41;4990459;28;20785;-75
2023/03/10 01:04:08;;;;;;;5.32;2.40;;;;;;;6.16;100.00;93811.41;4990991;28;24448;-75
2023/03/10 01:06:36;;;;;;;7.73;1.70;;;;;;;6.19;100.00;93800.03;4985450;28;21336;-75
2023/03/10 01:09:04;;;;;;;5.45;2.05;;;;;;;6.24;100.00;93790.25;4987154;28;24437;-75
2023/03/10 01:11:30;;;;;;;4.85;2.35;;;;;;;6.26;100.00;93790.91;4984739;28;24441;-75
2023/03/10 01:13:59;;;;;;;6.43;3.35;;;;;;;6.30;100.00;93797.47;4988499;28;24444;-75
2023/03/10 01:16:27;;;;;;;6.88;2.65;;;;;;;6.30;100.00;93789.75;4985940;28;20813;-75
2023/03/10 01:18:53;;;;;;;4.55;1.83;;;;;;;6.44;100.00;93786.09;4985535;28;20781;-75
2023/03/10 01:21:22;;;;;;;3.38;1.67;;;;;;;6.41;100.00;93776.88;4985887;28;24808;-75
2023/03/10 01:23:50;;;;;;;6.35;1.92;;;;;;;6.49;100.00;93776.28;4991181;28;20817;-74
2023/03/10 01:26:17;;;;;;;3.03;1.53;;;;;;;6.46;100.00;93779.91;4993036;28;20800;-74
2023/03/10 01:28:44;;;;;;;2.58;1.48;;;;;;;6.44;100.00;93776.63;4992576;28;24448;-74
2023/03/10 01:31:10;;;;;;;3.08;1.30;;;;;;;6.51;100.00;93775.22;4990233;28;20880;-74
2023/03/10 01:33:39;;;;;;;3.78;1.23;;;;;;;6.62;100.00;93776.13;4987488;28;20780;-75
2023/03/10 01:36:07;;;;;;;3.38;1.35;;;;;;;6.58;100.00;93779.88;4989615;28;20731;-75
2023/03/10 01:38:34;;;;;;;2.70;1.10;;;;;;;6.62;100.00;93776.13;4990415;28;21146;-77
2023/03/10 01:41:02;;;;;;;3.97;1.40;;;;;;;6.64;100.00;93774.28;4982106;28;24483;-75
2023/03/10 01:43:34;;;;;;;3.40;1.38;;;;;;;6.61;100.00;93777.91;4982404;28;20825;-75
2023/03/10 01:46:47;;;;;;;3.17;1.20;;;;;;;6.62;100.00;93768.41;4989083;28;20774;-75
2023/03/10 01:49:22;;;;;;;2.67;1.13;;;;;;;6.72;100.00;93766.75;4990463;28;20717;-75
2023/03/10 01:51:53;;;;;;;3.85;1.10;;;;;;;6.73;100.00;93765.81;4989910;28;21513;-75
2023/03/10 01:54:24;;;;;;;4.32;1.35;;;;;;;6.71;100.00;93762.53;4986744;28;20710;-75
2023/03/10 01:56:55;;;;;;;3.53;1.20;;;;;;;6.74;100.00;93754.56;4987833;28;20759;-75
2023/03/10 01:59:23;;;;;;;1.67;1.00;;;;;;;6.73;100.00;93758.91;4990401;28;20791;-75
2023/03/10 02:01:51;;;;;;;3.13;1.10;;;;;;;6.70;100.00;93751.44;4988194;28;20787;-74
2023/03/10 02:04:22;;;;;;;2.85;1.23;;;;;;;6.73;100.00;93750.38;4984297;28;20818;-76
2023/03/10 02:06:51;;;;;;;3.07;1.60;;;;;;;6.71;100.00;93747.94;4991534;28;20866;-76
2023/03/10 02:09:19;;;;;;;2.35;1.00;;;;;;;6.75;100.00;93754.47;4991456;28;20784;-77
2023/03/10 02:11:47;;;;;;;1.58;0.73;;;;;;;6.76;100.00;93747.56;4989088;28;21353;-77
2023/03/10 02:14:15;;;;;;;2.47;0.98;;;;;;;6.71;100.00;93744.53;4984465;28;21368;-77
2023/03/10 02:16:42;;;;;;;1.75;0.77;;;;;;;6.67;100.00;93743.13;4985761;28;20828;-77
2023/03/10 02:19:18;;;;;;;1.67;0.77;;;;;;;6.66;100.00;93736.38;4982496;28;24449;-77
2023/03/10 02:21:50;;;;;;;2.15;1.17;;;;;;;6.64;100.00;93740.84;4989847;28;20785;-76
2023/03/10 02:24:26;;;;;;;1.67;0.63;;;;;;;6.65;100.00;93740.69;4986237;28;24966;-77
2023/03/10 02:26:59;;;;;;;1.10;0.60;;;;;;;6.66;100.00;93732.03;4989823;28;21122;-77
2023/03/10 02:29:33;;;;;;;1.38;0.63;;;;;;;6.63;100.00;93734.84;4985811;28;24449;-78
2023/03/10 02:32:01;;;;;;;1.98;0.60;;;;;;;6.67;100.00;93727.69;4990019;28;21295;-77
2023/03/10 02:34:28;;;;;;;1.10;0.60;;;;;;;6.71;100.00;93723.94;4987787;28;20778;-78
2023/03/10 02:36:54;;;;;;;2.53;0.80;;;;;;;6.73;100.00;93724.66;4990009;28;20772;-78
2023/03/10 02:39:21;;;;;;;1.40;0.65;;;;;;;6.75;100.00;93717.63;4983735;28;24445;-78
2023/03/10 02:41:48;;;;;;;2.05;0.60;;;;;;;6.76;100.00;93708.97;4989106;28;24441;-78
2023/03/10 02:44:18;;;;;;;1.35;0.68;;;;;;;6.83;100.00;93696.44;4989207;28;20784;-75
2023/03/10 02:46:46;;;;;;;1.40;0.73;;;;;;;6.75;100.00;93691.91;4985927;28;20780;-75
2023/03/10 02:49:12;;;;;;;2.30;0.93;;;;;;;6.73;100.00;93696.34;4986747;28;20861;-75
2023/03/10 02:51:41;;;;;;;1.77;0.60;;;;;;;6.78;100.00;93704.50;4986734;28;20782;-74
2023/03/10 02:54:09;;;;;;;1.55;0.52;;;;;;;6.73;100.00;93696.34;4987046;28;20822;-75
2023/03/10 02:56:37;;;;;;;2.20;0.53;;;;;;;6.73;100.00;93706.63;4993590;28;20850;-75
2023/03/10 02:59:05;;;;;;;1.55;0.57;;;;;;;6.70;100.00;93705.13;4989351;28;20826;-75
2023/03/10 03:01:32;;;;;;;6.43;0.75;;;;;;;6.67;100.00;93700.22;4979841;28;20808;-74
2023/03/10 03:04:00;;;;;;;1.02;0.47;;;;;;;6.63;100.00;93692.88;4989070;28;21139;-74
2023/03/10 03:06:28;;;;;;;1.35;0.65;;;;;;;6.66;100.00;93687.50;4992141;28;20830;-74
2023/03/10 03:08:54;;;;;;;1.17;0.67;;;;;;;6.64;100.00;93689.38;4991993;28;20776;-78
2023/03/10 03:11:20;;;;;;;1.53;0.53;;;;;;;6.59;100.00;93684.59;4994310;28;21170;-76
2023/03/10 03:13:47;;;;;;;1.17;0.50;;;;;;;6.61;100.00;93685.28;4995155;28;20780;-76
2023/03/10 03:16:14;;;;;;;1.10;0.70;;;;;;;6.64;100.00;93673.97;4986733;28;20857;-76
2023/03/10 03:18:40;;;;;;;1.17;0.60;;;;;;;6.59;100.00;93674.31;4992473;28;20780;-76
2023/03/10 03:21:11;;;;;;;1.30;0.60;;;;;;;6.67;100.00;93671.09;4989655;28;20784;-76
2023/03/10 03:23:38;;;;;;;6.72;0.77;;;;;;;6.68;100.00;93659.91;4991739;28;20727;-76
2023/03/10 03:26:05;;;;;;;2.50;0.60;;;;;;;6.65;100.00;93642.94;4992757;28;21170;-75
2023/03/10 03:28:32;;;;;;;1.23;0.60;;;;;;;6.74;100.00;93652.47;4988109;28;24807;-75
2023/03/10 03:30:58;;;;;;;3.00;0.50;;;;;;;6.65;100.00;93645.53;4990279;28;24441;-74
2023/03/10 03:33:25;;;;;;;2.97;0.60;;;;;;;6.64;100.00;93637.94;4987659;28;24995;-75
2023/03/10 03:35:51;;;;;;;1.95;0.45;;;;;;;6.64;100.00;93637.94;4989329;28;24467;-75
2023/03/10 03:38:19;;;;;;;1.05;0.55;;;;;;;6.65;100.00;93640.38;4986684;28;24432;-75
2023/03/10 03:40:45;;;;;;;1.13;0.50;;;;;;;6.65;100.00;93642.94;4985783;28;20781;-75
2023/03/10 03:43:13;;;;;;;1.33;0.60;;;;;;;6.65;100.00;93631.84;4994041;28;24500;-74
2023/03/10 03:45:40;;;;;;;1.98;0.90;;;;;;;6.64;100.00;93636.19;4994236;28;24513;-74
2023/03/10 03:48:06;;;;;;;0.75;0.50;;;;;;;6.60;100.00;93631.38;4990354;28;20792;-76
2023/03/10 03:50:33;;;;;;;1.80;0.60;;;;;;;6.62;100.00;93632.09;4993498;28;24444;-76
2023/03/10 03:52:59;;;;;;;1.50;0.50;;;;;;;6.68;100.00;93631.59;4989081;28;20780;-76
2023/03/10 03:55:27;;;;;;;0.88;0.50;;;;;;;6.66;100.00;93633.47;4989455;28;20776;-74
2023/03/10 03:57:54;;;;;;;0.93;0.60;;;;;;;6.71;100.00;93639.03;4991219;28;20875;-75
2023/03/10 04:00:23;;;;;;;0.63;0.40;;;;;;;6.66;100.00;93628.34;4990292;28;24440;-74
2023/03/10 04:02:49;;;;;;;0.77;0.30;;;;;;;6.60;100.00;93619.38;4991823;28;20768;-74
2023/03/10 04:05:16;;;;;;;1.50;0.45;;;;;;;6.60;100.00;93615.97;4991353;28;20784;-75
2023/03/10 04:07:44;;;;;;;2.13;0.55;;;;;;;6.64;100.00;93605.31;4992204;28;20796;-75
2023/03/10 04:10:14;;;;;;;0.90;0.50;;;;;;;6.67;100.00;93605.03;4987949;28;20818;-75
2023/03/10 04:12:42;;;;;;;1.50;0.50;;;;;;;6.77;100.00;93605.13;4987768;28;20692;-74
2023/03/10 04:15:10;;;;;;;0.93;0.43;;;;;;;6.71;100.00;93610.75;4993015;28;24433;-75
2023/03/10 04:17:36;;;;;;;2.17;0.55;;;;;;;6.67;100.00;93614.53;4989850;28;21768;-76
2023/03/10 04:20:04;;;;;;;1.15;0.50;;;;;;;6.66;100.00;93612.91;4991119;28;24441;-76
2023/03/10 04:22:31;;;;;;;1.13;0.50;;;;;;;6.65;100.00;93619.00;4988973;28;20825;-78
2023/03/10 04:24:57;;;;;;;2.30;0.50;;;;;;;6.65;100.00;93629.28;4992390;28;20938;-77
2023/03/10 04:27:24;;;;;;;0.85;0.50;;;;;;;6.60;100.00;93629.66;4988696;28;24843;-78
2023/03/10 04:29:52;;;;;;;1.70;0.50;;;;;;;6.54;100.00;93625.00;4987055;28;20787;-77
2023/03/10 04:32:18;;;;;;;0.70;0.40;;;;;;;6.65;100.00;93632.66;4991355;28;20777;-75
2023/03/10 04:34:45;;;;;;;1.33;0.50;;;;;;;6.64;100.00;93628.47;4989240;28;20784;-75
2023/03/10 04:37:11;;;;;;;1.50;0.50;;;;;;;6.65;100.00;93630.09;4991846;28;20773;-75
2023/03/10 04:39:38;;;;;;;1.00;0.50;;;;;;;6.68;100.00;93631.59;4988377;28;24437;-75
2023/03/10 04:42:05;;;;;;;2.72;0.52;;;;;;;6.72;100.00;93628.66;4981441;28;20775;-75
2023/03/10 04:44:31;;;;;;;1.80;0.52;;;;;;;6.74;100.00;93602.78;4986243;28;24444;-74
2023/03/10 04:46:59;;;;;;;1.45;0.50;;;;;;;6.85;100.00;93589.84;4987371;28;24446;-74
2023/03/10 04:49:26;;;;;;;2.25;0.40;;;;;;;6.75;100.00;93594.97;4986439;28;20822;-74
2023/03/10 04:51:53;;;;;;;1.10;0.40;;;;;;;6.83;100.00;93594.31;4990999;28;20768;-75
2023/03/10 04:54:19;;;;;;;1.65;0.63;;;;;;;6.77;100.00;93595.63;4983487;28;24983;-75
2023/03/10 04:56:46;;;;;;;1.80;0.70;;;;;;;6.67;100.00;93596.50;4985987;28;24808;-75
2023/03/10 04:59:12;;;;;;;1.20;0.55;;;;;;;6.59;100.00;93593.75;4988602;28;24460;-75
2023/03/10 05:01:39;;;;;;;2.20;0.57;;;;;;;6.58;100.00;93597.28;4985013;28;24509;-76
2023/03/10 05:04:07;;;;;;;1.50;0.60;;;;;;;6.54;100.00;93594.16;4989333;28;24441;-77
2023/03/10 05:06:33;;;;;;;1.80;0.65;;;;;;;6.45;100.00;93589.72;4987136;28;20820;-77
2023/03/10 05:09:03;;;;;;;1.17;0.60;;;;;;;6.50;100.00;93580.72;4988956;28;20807;-77
2023/03/10 05:11:30;;;;;;;2.30;0.70;;;;;;;6.50;100.00;93583.28;4991164;28;20818;-77
2023/03/10 05:13:56;;;;;;;1.98;0.70;;;;;;;6.48;100.00;93572.31;4989385;28;20783;-75
2023/03/10 05:16:23;;;;;;;1.67;0.63;;;;;;;6.53;100.00;93571.94;4991188;28;24804;-76
2023/03/10 05:18:49;;;;;;;2.33;0.60;;;;;;;6.49;100.00;93566.25;4980692;28;20782;-76
2023/03/10 05:21:20;;;;;;;1.98;0.75;;;;;;;6.54;100.00;93563.28;4984777;28;24437;-76
2023/03/10 05:23:46;;;;;;;2.70;0.82;;;;;;;6.61;100.00;93561.03;4987672;28;20679;-75
2023/03/10 05:26:13;;;;;;;2.55;0.93;;;;;;;6.54;100.00;93568.44;4982207;28;21367;-75
2023/03/10 05:28:40;;;;;;;1.55;0.70;;;;;;;6.53;100.00;93572.75;4985622;28;25025;-75
2023/03/10 05:31:11;;;;;;;1.90;0.63;;;;;;;6.50;100.00;93580.72;4990158;28;21234;-75
2023/03/10 05:33:37;;;;;;;2.90;0.88;;;;;;;6.51;100.00;93578.97;4983140;28;20683;-74
2023/03/10 05:36:06;;;;;;;2.13;0.80;;;;;;;6.52;100.00;93581.41;4981607;28;24449;-75
2023/03/10 05:38:34;;;;;;;3.22;1.30;;;;;;;6.47;100.00;93580.16;4979607;28;20848;-76
2023/03/10 05:41:01;;;;;;;3.55;1.48;;;;;;;6.43;100.00;93577.03;4981846;28;20843;-76
2023/03/10 05:43:28;;;;;;;4.25;1.52;;;;;;;6.49;100.00;93584.25;4986554;28;20797;-77
2023/03/10 05:45:55;;;;;;;2.83;1.00;;;;;;;6.48;100.00;93576.63;4986407;28;24447;-76
2023/03/10 05:48:22;;;;;;;6.63;1.20;;;;;;;6.54;100.00;93571.81;4989934;28;21379;-74
2023/03/10 05:50:57;;;;;;;3.78;1.00;;;;;;;6.51;100.00;93566.91;4990893;28;20783;-74
2023/03/10 05:53:24;;;;;;;2.28;0.70;;;;;;;6.57;100.00;93563.03;4981419;28;20664;-74
2023/03/10 05:55:52;;;;;;;2.00;0.80;;;;;;;6.52;100.00;93568.53;4982366;28;20776;-74
2023/03/10 05:58:18;;;;;;;2.25;0.90;;;;;;;6.46;100.00;93569.06;4982797;28;20824;-74
2023/03/10 06:00:45;;;;;;;2.92;0.98;;;;;;;6.45;100.00;93567.44;4988181;28;24452;-74
2023/03/10 06:03:11;;;;;;;5.13;0.90;;;;;;;6.52;100.00;93562.59;4984846;28;24448;-75
2023/03/10 06:05:38;;;;;;;3.50;0.70;;;;;;;6.54;100.00;93555.56;4989658;28;24440;-75
2023/03/10 06:08:05;;;;;;;2.88;1.10;;;;;;;6.49;100.00;93552.56;4988036;28;20788;-74
2023/03/10 06:10:31;;;;;;;2.17;0.82;;;;;;;6.49;100.00;93545.66;4987102;28;24440;-75
2023/03/10 06:12:59;;;;;;;1.98;0.65;;;;;;;6.50;100.00;93538.75;4989924;28;25009;-73
2023/03/10 06:15:26;;;;;;;3.00;0.80;;;;;;;6.52;100.00;93511.97;4987938;28;20797;-73
2023/03/10 06:17:53;;;;;;;0.98;0.50;;;;;;;6.45;100.00;93490.31;4985301;28;24440;-74
2023/03/10 06:20:19;;;;;;;1.40;0.60;;;;;;;6.47;100.00;93497.88;4990691;28;24437;-73
2023/03/10 06:22:46;;;;;;;2.45;0.52;;;;;;;6.49;100.00;93501.97;4991140;28;24433;-77
2023/03/10 06:25:14;;;;;;;1.05;0.75;;;;;;;6.40;100.00;93502.69;4991158;28;24493;-79
2023/03/10 06:27:40;;;;;;;0.70;0.40;;;;;;;6.25;100.00;93499.63;4996532;28;20826;-76
2023/03/10 06:30:10;;;;;;;1.58;0.45;;;;;;;6.29;100.00;93500.19;4996507;28;24459;-76
2023/03/10 06:32:37;;;;;;;0.47;0.30;;;;;;;6.19;100.00;93507.88;5001539;28;20762;-76
2023/03/10 06:35:04;;;;;;;1.07;0.80;;;;;;;6.14;100.00;93509.97;4991389;28;24448;-77
2023/03/10 06:37:30;;;;;;;2.50;0.90;;;;;;;6.18;100.00;93510.53;4989225;28;20818;-77
2023/03/10 06:39:57;;;;;;;1.55;0.55;;;;;;;6.20;100.00;93509.50;4994732;28;24471;-77
2023/03/10 06:42:23;;;;;;;0.68;0.47;;;;;;;6.16;100.00;93502.97;4989680;28;24464;-78
2023/03/10 06:44:54;;;;;;;3.65;1.90;;;;;;;6.19;100.00;93492.44;4992194;28;24448;-78
2023/03/10 06:47:21;;;;;;;1.38;0.85;;;;;;;6.22;100.00;93497.31;4990418;28;21278;-77
2023/03/10 06:49:48;;;;;;;0.70;0.60;;;;;;;6.22;100.00;93497.31;4993407;28;20795;-75
2023/03/10 06:52:14;;;;;;;1.40;0.60;;;;;;;6.15;100.00;93491.03;4994159;28;24437;-76
2023/03/10 06:54:41;;;;;;;1.80;0.60;;;;;;;6.14;100.00;93492.00;4992057;28;24441;-77
2023/03/10 06:57:07;;;;;;;1.38;0.60;;;;;;;6.17;100.00;93493.50;4990454;28;24437;-77
2023/03/10 06:59:34;;;;;;;1.92;1.00;;;;;;;6.20;100.00;93488.94;4989857;28;25001;-78
2023/03/10 07:02:00;;;;;;;1.70;1.02;;;;;;;6.25;100.00;93491.94;4984151;28;24440;-75
2023/03/10 07:04:28;;;;;;;0.90;0.50;;;;;;;6.16;100.00;93482.41;4985156;28;24966;-75
2023/03/10 07:06:55;;;;;;;0.88;0.30;;;;;;;6.18;100.00;93485.66;4986648;28;21170;-75
2023/03/10 07:09:21;;;;;;;1.73;0.40;;;;;;;6.12;100.00;93482.75;4988631;28;20802;-75
2023/03/10 07:11:48;;;;;;;2.03;0.40;;;;;;;6.08;100.00;93497.63;4985974;28;24886;-75
2023/03/10 07:14:14;;;;;;;5.47;0.50;;;;;;;6.13;100.00;93489.56;4982301;28;25022;-75
2023/03/10 07:16:41;;;;;;;1.00;0.32;;;;;;;6.20;100.00;93494.06;4992924;28;24783;-75
2023/03/10 07:19:07;;;;;;;3.25;0.32;;;;;;;6.22;100.00;93504.22;4977948;28;24437;-76
2023/03/10 07:21:35;;;;;;;1.02;0.45;;;;;;;6.24;100.00;93512.63;4984839;28;25014;-76
2023/03/10 07:24:01;;;;;;;1.00;0.40;;;;;;;6.21;100.00;93512.88;4992246;28;24464;-78
2023/03/10 07:26:28;;;;;;;1.95;0.50;;;;;;;6.35;100.00;93520.28;4993673;28;24460;-77
2023/03/10 07:28:54;;;;;;;1.70;0.55;;;;;;;6.30;100.00;93504.38;4992096;28;24528;-77
2023/03/10 07:31:21;;;;;;;1.58;0.70;;;;;;;6.33;100.00;93509.28;4992262;28;24437;-77
2023/03/10 07:33:48;;;;;;;2.28;0.82;;;;;;;6.38;100.00;93520.03;4982762;28;24433;-78
2023/03/10 07:36:17;;;;;;;1.90;0.68;;;;;;;6.34;100.00;93523.78;4986545;28;24443;-77
2023/03/10 07:38:45;;;;;;;1.90;0.70;;;;;;;6.33;100.00;93521.31;4991129;28;24444;-78
2023/03/10 07:41:16;;;;;;;1.02;0.50;;;;;;;6.40;100.00;93515.56;4990571;28;24441;-78
2023/03/10 07:43:42;;;;;;;2.28;0.70;;;;;;;6.35;100.00;93515.13;4994588;28;21367;-77
2023/03/10 07:46:12;;;;;;;1.73;0.50;;;;;;;6.34;100.00;93520.38;4988831;28;24544;-78
2023/03/10 07:48:39;;;;;;;2.15;0.75;;;;;;;6.36;100.00;93519.31;4991544;28;21293;-77
2023/03/10 07:51:06;;;;;;;3.92;0.88;;;;;;;6.42;100.00;93534.25;4985793;28;24424;-75
2023/03/10 07:53:33;;;;;;;0.73;0.35;;;;;;;6.36;100.00;93554.50;4991113;28;24444;-75
2023/03/10 07:56:04;;;;;;;2.30;1.05;;;;;;;6.37;100.00;93562.09;4984218;28;24440;-75
2023/03/10 07:58:30;;;;;;;2.50;0.57;;;;;;;6.33;100.00;93575.31;4989683;28;24448;-74
2023/03/10 08:00:58;;;;;;;2.50;0.80;;;;;;;6.29;100.00;93587.59;4991872;28;24433;-75
2023/03/10 08:03:25;;;;;;;2.60;0.70;;;;;;;6.32;100.00;93581.41;4992215;28;24546;-74
2023/03/10 08:05:52;;;;;;;1.08;0.50;;;;;;;6.28;100.00;93583.41;4991832;28;20776;-74
2023/03/10 08:08:19;;;;;;;1.38;0.63;;;;;;;6.24;100.00;93584.59;4992208;28;24448;-74
2023/03/10 08:10:45;;;;;;;1.45;0.60;;;;;;;6.15;100.00;93598.16;4991725;28;24747;-74
2023/03/10 08:13:13;;;;;;;0.80;0.38;;;;;;;6.06;100.00;93585.13;4988861;28;24433;-74
2023/03/10 08:15:40;;;;;;;0.60;0.40;;;;;;;6.10;100.00;93584.88;4991821;28;24440;-74
2023/03/10 08:18:07;;;;;;;0.52;0.22;;;;;;;6.16;100.00;93579.25;4989282;28;24433;-74
2023/03/10 08:20:35;;;;;;;0.50;0.40;;;;;;;6.18;100.00;93592.78;4991591;28;24448;-75
2023/03/10 08:23:02;;;;;;;0.47;0.28;;;;;;;6.18;100.00;93595.34;4988111;28;24440;-75
2023/03/10 08:25:29;;;;;;;1.02;0.35;;;;;;;6.29;100.00;93577.31;4992760;28;24463;-74
2023/03/10 08:27:55;;;;;;;5.20;0.50;;;;;;;6.32;100.00;93583.97;4991281;28;24851;-74
2023/03/10 08:30:23;;;;;;;1.20;0.30;;;;;;;6.49;100.00;93570.56;4992210;28;24463;-75
2023/03/10 08:32:50;;;;;;;0.85;0.30;;;;;;;6.70;100.00;93579.06;4992268;28;24445;-74
2023/03/10 08:35:16;;;;;;;2.88;0.45;;;;;;;7.03;100.00;93575.47;4992379;28;24441;-74
2023/03/10 08:37:43;;;;;;;2.08;0.52;;;;;;;7.33;100.00;93571.22;4987035;28;24445;-74
2023/03/10 08:40:12;;;;;;;0.90;0.50;;;;;;;7.72;100.00;93568.78;4984373;28;21365;-74
2023/03/10 08:42:39;;;;;;;1.27;0.45;;;;;;;7.83;100.00;93555.78;4984546;28;20773;-75
2023/03/10 08:45:06;;;;;;;1.33;0.50;;;;;;;8.05;100.00;93567.59;4982582;28;24433;-74
2023/03/10 08:47:34;;;;;;;1.05;0.52;;;;;;;8.13;100.00;93575.47;4991038;28;24444;-74
2023/03/10 08:50:01;;;;;;;0.70;0.30;;;;;;;8.21;100.00;93578.16;4988239;28;24461;-74
2023/03/10 08:52:27;;;;;;;1.52;0.50;;;;;;;8.15;100.00;93577.91;4991204;28;20780;-74
2023/03/10 08:54:54;;;;;;;2.00;0.65;;;;;;;8.12;100.00;93583.31;4988841;28;20783;-74
2023/03/10 08:57:20;;;;;;;9.20;0.70;;;;;;;7.96;100.00;93584.66;4984959;28;24445;-74
2023/03/10 08:59:47;;;;;;;2.45;0.70;;;;;;;7.88;100.00;93578.56;4987219;28;24443;-74
2023/03/10 09:02:14;;;;;;;3.22;0.80;;;;;;;7.79;100.00;93584.50;4983837;28;24784;-73
2023/03/10 09:04:42;;;;;;;2.37;0.70;;;;;;;7.75;100.00;93571.91;4983295;28;24437;-75
2023/03/10 09:07:09;;;;;;;1.43;0.60;;;;;;;7.70;100.00;93586.13;4982297;28;20798;-73
2023/03/10 09:09:36;;;;;;;1.90;0.73;;;;;;;7.51;100.00;93587.69;4990285;28;24488;-73
2023/03/10 09:12:03;;;;;;;3.67;0.80;;;;;;;7.44;100.00;93590.94;4991432;28;24437;-74
2023/03/10 09:14:29;;;;;;;2.10;0.70;;;;;;;7.52;100.00;93606.53;4984832;28;24433;-74
2023/03/10 09:16:56;;;;;;;4.95;0.80;;;;;;;7.55;100.00;93605.47;4990484;28;24440;-74
2023/03/10 09:19:22;;;;;;;3.85;1.45;;;;;;;7.69;100.00;93608.50;4990534;28;24473;-74
2023/03/10 09:21:50;;;;;;;5.15;1.80;;;;;;;7.76;100.00;93606.22;4984557;28;24510;-74
2023/03/10 09:24:18;;;;;;;6.70;3.37;;;;;;;7.76;100.00;93608.78;4990585;28;24451;-75
2023/03/10 09:26:44;;;;;;;6.90;4.37;;;;;;;7.68;100.00;93608.63;4983363;28;21347;-75
2023/03/10 09:29:11;;;;;;;7.80;4.45;;;;;;;7.54;100.00;93609.81;4981862;28;20817;-74
2023/03/10 09:31:39;;;;;;;9.40;3.95;;;;;;;7.54;100.00;93606.41;4986539;28;24473;-74
2023/03/10 09:34:07;;;;;;;8.27;4.75;;;;;;;7.60;100.00;93598.16;4988534;28;24888;-74
2023/03/10 09:36:33;;;;;;;6.05;3.13;;;;;;;7.68;100.00;93604.28;4990252;28;24468;-73
2023/03/10 09:39:01;;;;;;;5.75;3.28;;;;;;;7.78;100.00;93606.88;4984116;28;24433;-74
2023/03/10 09:41:47;;;;;;;8.40;2.47;;;;;;;7.88;100.00;93610.28;4988116;28;24440;-73
2023/03/10 09:44:25;;;;;;;3.43;1.80;;;;;;;7.92;100.00;93613.41;4989133;28;20868;-74
2023/03/10 09:47:05;;;;;;;4.50;2.00;;;;;;;8.02;100.00;93611.69;4989700;28;25087;-74
2023/03/10 09:49:35;;;;;;;4.78;2.10;;;;;;;7.96;100.00;93610.44;4989121;28;24940;-74
2023/03/10 09:52:08;;;;;;;5.22;1.70;;;;;;;7.99;100.00;93611.94;4984147;28;24443;-74
2023/03/10 09:54:45;;;;;;;2.88;1.20;;;;;;;7.81;100.00;93603.22;4983863;28;24440;-73
2023/03/10 09:57:15;;;;;;;1.48;0.80;;;;;;;7.82;100.00;93610.81;4984350;28;20822;-72
2023/03/10 09:59:45;;;;;;;1.80;0.90;;;;;;;7.78;100.00;93612.03;4986176;28;24436;-75
2023/03/10 10:02:18;;;;;;;2.88;0.80;;;;;;;7.82;100.00;93608.25;4990817;28;20811;-74
2023/03/10 10:04:45;;;;;;;5.32;1.00;;;;;;;7.77;100.00;93612.97;4987845;28;24436;-74
2023/03/10 10:07:17;;;;;;;2.60;1.00;;;;;;;7.76;100.00;93606.22;4989722;28;24465;-75
2023/03/10 10:09:52;;;;;;;2.63;0.70;;;;;;;7.75;100.00;93612.31;4991005;28;20750;-75
2023/03/10 10:12:22;;;;;;;3.53;1.63;;;;;;;7.79;100.00;93605.94;4990094;28;20755;-74
2023/03/10 10:14:49;;;;;;;10.73;2.30;;;;;;;7.79;100.00;93607.69;4988297;28;21239;-75
2023/03/10 10:17:28;;;;;;;2.17;1.00;;;;;;;7.65;100.00;93596.81;4986112;28;20818;-75
2023/03/10 10:19:56;;;;;;;3.17;1.00;;;;;;;7.78;100.00;93600.91;4989834;28;24444;-74
2023/03/10 10:22:27;;;;;;;2.28;0.80;;;;;;;7.69;100.00;93608.50;4986106;28;24445;-75
2023/03/10 10:25:10;;;;;;;3.28;0.80;;;;;;;7.67;100.00;93606.97;4990650;28;20734;-75
2023/03/10 10:27:37;;;;;;;2.15;0.80;;;;;;;7.57;100.00;93609.56;4985880;28;20778;-76
2023/03/10 10:30:27;;;;;;;2.63;0.80;;;;;;;7.49;100.00;93615.34;4988654;28;24468;-75
2023/03/10 10:32:56;;;;;;;2.90;1.10;;;;;;;7.48;100.00;93611.13;4983779;28;21193;-75
2023/03/10 10:35:25;;;;;;;1.67;0.80;;;;;;;7.41;100.00;93607.44;4990314;28;20900;-75
2023/03/10 10:37:59;;;;;;;1.88;0.80;;;;;;;7.44;100.00;93608.94;4990236;28;21341;-73
2023/03/10 10:40:29;;;;;;;2.30;0.73;;;;;;;7.54;100.00;93609.81;4983951;28;21094;-74
2023/03/10 10:42:59;;;;;;;1.92;0.77;;;;;;;7.58;100.00;93606.03;4984648;28;20727;-75
2023/03/10 10:45:29;;;;;;;1.60;0.80;;;;;;;7.59;100.00;93606.84;4987780;28;24460;-73
2023/03/10 10:47:56;;;;;;;4.38;0.77;;;;;;;7.57;100.00;93606.97;4987824;28;24433;-73
2023/03/10 10:50:25;;;;;;;5.13;1.00;;;;;;;7.61;100.00;93615.25;4979825;28;24465;-74
2023/03/10 10:53:12;;;;;;;1.90;0.60;;;;;;;7.70;100.00;93614.44;4985440;28;20738;-73
2023/03/10 10:55:42;;;;;;;1.63;0.50;;;;;;;7.51;100.00;93620.38;4986315;28;24444;-74
2023/03/10 10:58:28;;;;;;;2.25;0.60;;;;;;;7.58;100.00;93616.31;4987807;28;20729;-74
2023/03/10 11:00:57;;;;;;;1.90;0.75;;;;;;;7.53;100.00;93615.91;4986867;28;20889;-74
2023/03/10 11:03:27;;;;;;;3.33;0.55;;;;;;;7.49;100.00;93630.81;4985909;28;20830;-72
2023/03/10 11:05:53;;;;;;;1.23;0.57;;;;;;;7.40;100.00;93620.47;4990712;28;20768;-73
2023/03/10 11:08:31;;;;;;;2.30;0.70;;;;;;;7.40;100.00;93626.44;4989867;28;24478;-74
2023/03/10 11:11:03;;;;;;;1.45;0.50;;;;;;;7.47;100.00;93640.41;4987739;28;20879;-73
2023/03/10 11:13:39;;;;;;;3.03;0.70;;;;;;;7.48;100.00;93644.63;4989458;28;20692;-73
2023/03/10 11:16:15;;;;;;;2.13;0.80;;;;;;;7.58;100.00;93646.44;4992909;28;21121;-74
2023/03/10 11:18:47;;;;;;;1.05;0.47;;;;;;;7.67;100.00;93636.13;4989561;28;20795;-73
2023/03/10 11:21:21;;;;;;;2.58;0.93;;;;;;;7.68;100.00;93650.66;4989096;28;20760;-74
2023/03/10 11:23:59;;;;;;;2.80;1.00;;;;;;;7.57;100.00;93647.38;4985441;28;20805;-73
2023/03/10 11:26:42;;;;;;;2.80;0.90;;;;;;;7.53;100.00;93651.97;4986671;28;21386;-73
2023/03/10 11:29:20;;;;;;;1.77;0.70;;;;;;;7.55;100.00;93652.66;4991208;28;20794;-74
2023/03/10 11:31:53;;;;;;;1.63;0.68;;;;;;;7.66;100.00;93659.47;4992416;28;20660;-73
2023/03/10 11:34:29;;;;;;;1.13;0.40;;;;;;;7.68;100.00;93662.75;4992400;28;20668;-73
2023/03/10 11:37:05;;;;;;;1.02;0.50;;;;;;;7.80;100.00;93653.16;4984583;28;21339;-73
2023/03/10 11:39:43;;;;;;;1.80;0.60;;;;;;;7.90;100.00;93641.91;4989366;28;21291;-74